Time;durP1;ratioP1;P1;durP2;ratioP2;P2;SDS_P1;SDS_P2;PMS_P1;PMS_P2;Temp;Humidity;BMP_temperature;BMP_pressure;BME280_temperature;BME280_humidity;BME280_pressure;Samples;Min_cycle;Max_cycle;Signal;HPM_P1;HPM_P2
2023/06/22 00:02:22;;;;;;;7.22;5.68;;;;;;;;;;10311609;28;20079;-59
2023/06/22 00:07:20;;;;;;;6.63;6.00;;;;;;;;;;10313602;28;20573;-59
2023/06/22 00:12:21;;;;;;;7.03;6.43;;;;;;;;;;10310656;28;20482;-59
2023/06/22 00:17:19;;;;;;;7.88;6.30;;;;;;;;;;10309358;28;20068;-59
2023/06/22 00:22:18;;;;;;;6.47;5.65;;;;;;;;;;10311016;28;20094;-59
2023/06/22 00:27:16;;;;;;;5.70;5.20;;;;;;;;;;10311832;28;20068;-59
2023/06/22 00:32:17;;;;;;;5.25;4.85;;;;;;;;;;10310771;28;20068;-59
2023/06/22 00:37:18;;;;;;;6.22;5.78;;;;;;;;;;10312791;28;20479;-58
2023/06/22 00:42:16;;;;;;;8.50;7.70;;;;;;;;;;10310825;28;20461;-58
2023/06/22 00:47:17;;;;;;;8.80;7.85;;;;;;;;;;10310296;28;20087;-57
2023/06/22 00:52:20;;;;;;;11.90;8.23;;;;;;;;;;10310059;28;20068;-58
2023/06/22 00:57:21;;;;;;;10.23;9.30;;;;;;;;;;10322547;28;20076;-58
2023/06/22 01:02:21;;;;;;;8.82;8.05;;;;;;;;;;10304433;28;20082;-58
2023/06/22 01:07:23;;;;;;;9.35;7.25;;;;;;;;;;10306954;28;20083;-58
2023/06/22 01:12:22;;;;;;;8.63;7.15;;;;;;;;;;10308914;28;20067;-58
2023/06/22 01:17:22;;;;;;;12.60;10.27;;;;;;;;;;10309878;28;20068;-58
2023/06/22 01:22:21;;;;;;;12.00;10.82;;;;;;;;;;10301967;28;20468;-58
2023/06/22 01:27:25;;;;;;;11.93;10.07;;;;;;;;;;10304689;28;20076;-58
2023/06/22 01:32:23;;;;;;;;;;;;;;;;;;10309227;28;20056;-59
2023/06/22 01:37:23;;;;;;;9.80;8.85;;;;;;;;;;10305329;28;19956;-59
2023/06/22 01:42:22;;;;;;;9.63;8.73;;;;;;;;;;10309437;28;20087;-59
2023/06/22 01:47:21;;;;;;;9.88;8.93;;;;;;;;;;10312682;28;20072;-59
2023/06/22 01:52:20;;;;;;;8.90;8.10;;;;;;;;;;10310311;28;20098;-59
2023/06/22 01:57:22;;;;;;;8.07;7.30;;;;;;;;;;10310674;28;20083;-59
2023/06/22 02:02:26;;;;;;;7.13;6.53;;;;;;;;;;10324924;28;20080;-59
2023/06/22 02:07:28;;;;;;;8.00;7.20;;;;;;;;;;10309843;28;20186;-59
2023/06/22 02:12:29;;;;;;;8.27;7.53;;;;;;;;;;10307436;28;20087;-59
2023/06/22 02:17:27;;;;;;;7.68;6.97;;;;;;;;;;10310561;28;20103;-58
2023/06/22 02:22:25;;;;;;;8.00;7.28;;;;;;;;;;10307542;28;20630;-58
2023/06/22 02:27:26;;;;;;;7.72;7.03;;;;;;;;;;10306208;28;20072;-59
2023/06/22 02:32:26;;;;;;;8.10;7.32;;;;;;;;;;10308406;28;20049;-58
2023/06/22 02:37:25;;;;;;;8.05;7.32;;;;;;;;;;10298669;28;20068;-58
2023/06/22 02:42:23;;;;;;;16.25;8.13;;;;;;;;;;10307560;28;20091;-58
2023/06/22 02:47:21;;;;;;;16.88;10.48;;;;;;;;;;10308867;28;20071;-59
2023/06/22 02:52:22;;;;;;;16.05;10.23;;;;;;;;;;10307812;28;20087;-59
2023/06/22 02:57:20;;;;;;;10.77;9.70;;;;;;;;;;10306566;28;20091;-58
2023/06/22 03:02:21;;;;;;;17.90;10.35;;;;;;;;;;10305404;28;20076;-58
2023/06/22 03:07:19;;;;;;;10.82;9.80;;;;;;;;;;10311014;28;20059;-58
2023/06/22 03:12:21;;;;;;;10.68;8.60;;;;;;;;;;10305769;28;20080;-59
2023/06/22 03:17:23;;;;;;;9.63;8.70;;;;;;;;;;10329249;28;20076;-59
2023/06/22 03:22:21;;;;;;;9.55;8.65;;;;;;;;;;10314622;28;20072;-58
2023/06/22 03:27:21;;;;;;;9.95;8.73;;;;;;;;;;10303633;28;20497;-59
2023/06/22 03:32:19;;;;;;;10.25;9.00;;;;;;;;;;10308606;28;20049;-58
2023/06/22 03:37:17;;;;;;;10.60;9.60;;;;;;;;;;10312891;28;20102;-60
2023/06/22 03:42:16;;;;;;;13.48;9.75;;;;;;;;;;10312321;28;20080;-59
2023/06/22 03:47:15;;;;;;;10.13;8.98;;;;;;;;;;10311362;28;20075;-60
2023/06/22 03:52:14;;;;;;;10.13;8.98;;;;;;;;;;10314701;28;20068;-58
2023/06/22 03:57:12;;;;;;;11.48;9.50;;;;;;;;;;10310607;28;20068;-59
2023/06/22 04:02:10;;;;;;;11.38;10.20;;;;;;;;;;10314216;28;20094;-59
2023/06/22 04:07:10;;;;;;;11.80;10.57;;;;;;;;;;10312669;28;20096;-58
2023/06/22 04:12:08;;;;;;;11.38;10.20;;;;;;;;;;10311022;28;20080;-59
2023/06/22 04:17:06;;;;;;;16.55;11.30;;;;;;;;;;10316431;28;20076;-59
2023/06/22 04:22:07;;;;;;;13.07;10.32;;;;;;;;;;10310198;28;20072;-58
2023/06/22 04:27:06;;;;;;;12.05;10.45;;;;;;;;;;10309893;28;20082;-59
2023/06/22 04:32:06;;;;;;;12.75;10.77;;;;;;;;;;10308925;28;20087;-59
2023/06/22 04:37:04;;;;;;;10.95;9.70;;;;;;;;;;10311022;28;20491;-58
2023/06/22 04:42:02;;;;;;;18.17;12.73;;;;;;;;;;10310637;28;20550;-58
2023/06/22 04:47:08;;;;;;;15.98;11.70;;;;;;;;;;10308009;28;20068;-58
2023/06/22 04:52:07;;;;;;;14.38;12.88;;;;;;;;;;10309178;28;20071;-59
2023/06/22 04:57:09;;;;;;;69.70;16.13;;;;;;;;;;10307471;28;20060;-59
2023/06/22 05:02:09;;;;;;;31.77;12.43;;;;;;;;;;10311332;28;20116;-60
2023/06/22 05:07:08;;;;;;;11.65;10.55;;;;;;;;;;10309355;28;20099;-59
2023/06/22 05:12:07;;;;;;;12.48;9.95;;;;;;;;;;10309660;28;20064;-58
2023/06/22 05:17:13;;;;;;;13.90;10.95;;;;;;;;;;10308313;28;20090;-57
2023/06/22 05:22:13;;;;;;;12.77;7.97;;;;;;;;;;10309235;28;20060;-58
2023/06/22 05:27:11;;;;;;;14.38;9.02;;;;;;;;;;10309050;28;20497;-59
2023/06/22 05:32:11;;;;;;;9.60;8.70;;;;;;;;;;10312508;28;20071;-58
2023/06/22 05:37:10;;;;;;;10.93;8.10;;;;;;;;;;10308995;28;20065;-59
2023/06/22 05:42:09;;;;;;;10.15;7.47;;;;;;;;;;10309015;28;20127;-58
2023/06/22 05:47:08;;;;;;;13.65;7.63;;;;;;;;;;10306826;28;20073;-57
2023/06/22 05:52:08;;;;;;;8.13;7.35;;;;;;;;;;10305544;28;20083;-59
2023/06/22 05:57:06;;;;;;;8.30;7.50;;;;;;;;;;10302621;28;20071;-56
2023/06/22 06:02:04;;;;;;;8.18;7.47;;;;;;;;;;10311244;28;20068;-59
2023/06/22 06:07:03;;;;;;;8.40;7.53;;;;;;;;;;10301079;28;20111;-58
2023/06/22 06:12:03;;;;;;;7.05;6.45;;;;;;;;;;10299976;28;20064;-58
2023/06/22 06:17:02;;;;;;;10.75;7.18;;;;;;;;;;10301882;28;20064;-57
2023/06/22 06:22:00;;;;;;;9.63;7.20;;;;;;;;;;10303868;28;20092;-58
2023/06/22 06:26:58;;;;;;;8.40;6.38;;;;;;;;;;10302883;28;20166;-55
2023/06/22 06:31:58;;;;;;;8.63;7.05;;;;;;;;;;10307546;28;20572;-57
2023/06/22 06:36:56;;;;;;;7.63;6.95;;;;;;;;;;10308567;28;20071;-59
2023/06/22 06:41:54;;;;;;;7.28;6.68;;;;;;;;;;10314887;28;20506;-59
2023/06/22 06:46:54;;;;;;;12.35;7.35;;;;;;;;;;10305665;28;20068;-60
2023/06/22 06:51:55;;;;;;;13.38;7.72;;;;;;;;;;10310081;28;20098;-58
2023/06/22 06:56:54;;;;;;;7.63;6.97;;;;;;;;;;10309724;28;20068;-59
2023/06/22 07:01:52;;;;;;;6.78;6.18;;;;;;;;;;10312675;28;20067;-59
2023/06/22 07:06:50;;;;;;;11.23;6.82;;;;;;;;;;10303608;28;20084;-59
2023/06/22 07:11:50;;;;;;;7.13;6.50;;;;;;;;;;10311296;28;20076;-58
2023/06/22 07:16:48;;;;;;;6.82;6.22;;;;;;;;;;10313961;28;20060;-59
2023/06/22 07:21:46;;;;;;;6.10;5.60;;;;;;;;;;10313938;28;20088;-59
2023/06/22 07:26:45;;;;;;;6.63;6.13;;;;;;;;;;10313930;28;20075;-59
2023/06/22 07:31:45;;;;;;;6.55;5.68;;;;;;;;;;10315984;28;20513;-59
2023/06/22 07:36:44;;;;;;;6.22;4.72;;;;;;;;;;10314514;28;20438;-58
2023/06/22 07:41:42;;;;;;;6.15;5.50;;;;;;;;;;10315333;28;20075;-59
2023/06/22 07:46:40;;;;;;;6.32;5.85;;;;;;;;;;10314088;28;20072;-58
2023/06/22 07:51:40;;;;;;;6.10;5.53;;;;;;;;;;10311715;28;20064;-59
2023/06/22 07:56:38;;;;;;;9.15;6.32;;;;;;;;;;10309796;28;20087;-58
2023/06/22 08:01:37;;;;;;;11.57;10.48;;;;;;;;;;10313233;28;20068;-58
2023/06/22 08:06:35;;;;;;;6.45;5.85;;;;;;;;;;10312054;28;20080;-60
2023/06/22 08:11:35;;;;;;;6.68;6.18;;;;;;;;;;10308223;28;20068;-59
2023/06/22 08:16:33;;;;;;;5.20;4.80;;;;;;;;;;10312066;28;20072;-58
2023/06/22 08:21:31;;;;;;;7.72;5.90;;;;;;;;;;10312507;28;20478;-58
2023/06/22 08:26:30;;;;;;;6.40;5.55;;;;;;;;;;10315325;28;20076;-59
2023/06/22 08:31:29;;;;;;;7.70;6.20;;;;;;;;;;10310388;28;20072;-58
2023/06/22 08:36:35;;;;;;;8.02;6.40;;;;;;;;;;10315902;28;20075;-59
2023/06/22 08:41:33;;;;;;;5.88;5.38;;;;;;;;;;10304583;28;20083;-60
2023/06/22 08:46:33;;;;;;;6.82;6.13;;;;;;;;;;10307592;28;20072;-59
2023/06/22 08:51:31;;;;;;;8.10;5.35;;;;;;;;;;10310032;28;20068;-59
2023/06/22 08:56:30;;;;;;;11.32;5.40;;;;;;;;;;10311759;28;20547;-59
2023/06/22 09:01:28;;;;;;;6.18;5.68;;;;;;;;;;10311616;28;20061;-59
2023/06/22 09:06:28;;;;;;;7.30;6.22;;;;;;;;;;10312376;28;20441;-59
2023/06/22 09:11:26;;;;;;;6.13;5.55;;;;;;;;;;10311315;28;20068;-59
2023/06/22 09:16:25;;;;;;;8.32;6.82;;;;;;;;;;10308606;28;20075;-59
2023/06/22 09:21:24;;;;;;;7.15;5.45;;;;;;;;;;10310202;28;20064;-59
2023/06/22 09:26:24;;;;;;;6.90;6.30;;;;;;;;;;10307012;28;20473;-59
2023/06/22 09:31:25;;;;;;;7.90;5.85;;;;;;;;;;10309974;28;20068;-59
2023/06/22 09:36:24;;;;;;;13.95;7.07;;;;;;;;;;10311937;28;20190;-59
2023/06/22 09:41:23;;;;;;;6.65;6.05;;;;;;;;;;10306809;28;20068;-59
2023/06/22 09:46:24;;;;;;;12.88;6.32;;;;;;;;;;10306981;28;20078;-59
2023/06/22 09:51:23;;;;;;;5.85;5.32;;;;;;;;;;10306358;28;20091;-58
2023/06/22 09:56:22;;;;;;;6.88;6.28;;;;;;;;;;10306931;28;20060;-59
2023/06/22 10:01:22;;;;;;;11.93;5.55;;;;;;;;;;10307225;28;20118;-58
2023/06/22 10:06:20;;;;;;;7.10;6.28;;;;;;;;;;10309632;28;20088;-59
2023/06/22 10:11:19;;;;;;;6.13;5.53;;;;;;;;;;10307173;28;20072;-59
2023/06/22 10:16:17;;;;;;;8.10;6.72;;;;;;;;;;10299883;28;20076;-59
2023/06/22 10:21:16;;;;;;;6.65;6.07;;;;;;;;;;10311645;28;20080;-60
2023/06/22 10:26:15;;;;;;;6.07;5.57;;;;;;;;;;10319032;28;20081;-60
2023/06/22 10:31:14;;;;;;;8.98;6.72;;;;;;;;;;10312403;28;20481;-59
2023/06/22 10:36:12;;;;;;;8.40;6.13;;;;;;;;;;10308838;28;20072;-60
2023/06/22 10:41:11;;;;;;;8.68;5.95;;;;;;;;;;10313295;28;20087;-59
2023/06/22 10:46:10;;;;;;;9.20;6.20;;;;;;;;;;10312436;28;20106;-59
2023/06/22 10:51:08;;;;;;;6.57;6.03;;;;;;;;;;10313337;28;20075;-59
2023/06/22 10:56:06;;;;;;;6.35;5.68;;;;;;;;;;10316802;28;20076;-58
2023/06/22 11:01:06;;;;;;;6.53;6.00;;;;;;;;;;10311286;28;20049;-59
2023/06/22 11:06:04;;;;;;;7.55;5.28;;;;;;;;;;10317356;28;20099;-59
2023/06/22 11:11:02;;;;;;;7.43;5.57;;;;;;;;;;10316332;28;20091;-59
2023/06/22 11:16:00;;;;;;;6.28;5.68;;;;;;;;;;10318148;28;20064;-59
2023/06/22 11:21:00;;;;;;;6.82;5.72;;;;;;;;;;10315405;28;20573;-59
2023/06/22 11:25:58;;;;;;;5.72;5.28;;;;;;;;;;10316267;28;20072;-59
2023/06/22 11:30:56;;;;;;;5.88;5.38;;;;;;;;;;10316246;28;20107;-60
2023/06/22 11:35:57;;;;;;;6.68;6.05;;;;;;;;;;10315184;28;20060;-59
2023/06/22 11:40:57;;;;;;;10.95;6.20;;;;;;;;;;10315388;28;20083;-60
2023/06/22 11:45:55;;;;;;;10.73;6.22;;;;;;;;;;10313826;28;20079;-59
2023/06/22 11:50:54;;;;;;;5.93;5.43;;;;;;;;;;10314607;28;20088;-59
2023/06/22 11:55:57;;;;;;;7.38;5.72;;;;;;;;;;10314341;28;20091;-59
2023/06/22 12:00:55;;;;;;;11.32;5.90;;;;;;;;;;10316430;28;20092;-59
2023/06/22 12:05:54;;;;;;;7.32;5.63;;;;;;;;;;10316157;28;20108;-59
2023/06/22 12:10:53;;;;;;;6.22;5.45;;;;;;;;;;10314395;28;20541;-59
2023/06/22 12:15:53;;;;;;;6.97;6.28;;;;;;;;;;10312427;28;20080;-59
2023/06/22 12:20:51;;;;;;;8.52;5.97;;;;;;;;;;10312020;28;20521;-59
2023/06/22 12:25:50;;;;;;;7.95;6.88;;;;;;;;;;10312932;28;20068;-59
2023/06/22 12:30:48;;;;;;;9.85;6.57;;;;;;;;;;10313232;28;20072;-60
2023/06/22 12:35:48;;;;;;;6.72;6.05;;;;;;;;;;10313076;28;20064;-59
2023/06/22 12:40:49;;;;;;;7.47;5.35;;;;;;;;;;10312980;28;20482;-59
2023/06/22 12:45:47;;;;;;;11.70;6.25;;;;;;;;;;10312848;28;20517;-59
2023/06/22 12:50:46;;;;;;;7.85;5.70;;;;;;;;;;10312243;28;20068;-59
2023/06/22 12:55:46;;;;;;;8.32;5.95;;;;;;;;;;10312498;28;20076;-59
2023/06/22 13:00:44;;;;;;;6.43;5.82;;;;;;;;;;10313894;28;20075;-59
2023/06/22 13:05:42;;;;;;;5.82;5.32;;;;;;;;;;10313331;28;20095;-60
2023/06/22 13:10:41;;;;;;;7.05;6.15;;;;;;;;;;10312088;28;20104;-59
2023/06/22 13:15:40;;;;;;;8.27;5.82;;;;;;;;;;10311891;28;20079;-59
2023/06/22 13:20:38;;;;;;;6.88;6.03;;;;;;;;;;10309833;28;20087;-59
2023/06/22 13:25:37;;;;;;;10.18;5.82;;;;;;;;;;10299101;28;20071;-59
2023/06/22 13:30:35;;;;;;;12.90;5.40;;;;;;;;;;10306339;28;20076;-59
2023/06/22 13:35:35;;;;;;;7.97;5.57;;;;;;;;;;10308100;28;20067;-61
2023/06/22 13:40:33;;;;;;;8.77;7.97;;;;;;;;;;10308305;28;20079;-58
2023/06/22 13:45:31;;;;;;;6.70;5.85;;;;;;;;;;10308611;28;20079;-59
2023/06/22 13:50:29;;;;;;;10.57;9.68;;;;;;;;;;10311021;28;20080;-60
2023/06/22 13:55:30;;;;;;;13.70;12.48;;;;;;;;;;10310749;28;20083;-60
2023/06/22 14:00:28;;;;;;;8.00;5.93;;;;;;;;;;10312103;28;20496;-60
2023/06/22 14:05:27;;;;;;;10.55;6.45;;;;;;;;;;10312985;28;20647;-59
2023/06/22 14:10:26;;;;;;;8.15;5.80;;;;;;;;;;10313186;28;20091;-59
2023/06/22 14:15:26;;;;;;;6.30;5.68;;;;;;;;;;10309064;28;20494;-59
2023/06/22 14:20:24;;;;;;;6.53;5.90;;;;;;;;;;10308303;28;20064;-59
2023/06/22 14:25:22;;;;;;;6.40;5.90;;;;;;;;;;10310424;28;20545;-59
2023/06/22 14:30:21;;;;;;;6.93;5.68;;;;;;;;;;10312659;28;20067;-59
2023/06/22 14:35:21;;;;;;;10.50;6.93;;;;;;;;;;10309346;28;20064;-59
2023/06/22 14:40:19;;;;;;;8.48;6.70;;;;;;;;;;10306574;28;20498;-59
2023/06/22 14:45:18;;;;;;;6.40;5.80;;;;;;;;;;10298030;28;20083;-60
2023/06/22 14:50:16;;;;;;;10.35;7.47;;;;;;;;;;10306514;28;20079;-60
2023/06/22 14:55:16;;;;;;;12.98;5.97;;;;;;;;;;10307362;28;20072;-59
2023/06/22 15:00:14;;;;;;;7.47;6.78;;;;;;;;;;10306772;28;20064;-60
2023/06/22 15:05:12;;;;;;;6.13;5.53;;;;;;;;;;10309718;28;20560;-61
2023/06/22 15:10:11;;;;;;;6.90;5.80;;;;;;;;;;10317572;28;20072;-59
2023/06/22 15:15:11;;;;;;;6.03;5.43;;;;;;;;;;10316014;28;20044;-60
2023/06/22 15:20:09;;;;;;;7.97;7.18;;;;;;;;;;10312302;28;20587;-60
2023/06/22 15:25:10;;;;;;;7.88;6.38;;;;;;;;;;10315041;28;20079;-61
2023/06/22 15:30:08;;;;;;;6.97;5.78;;;;;;;;;;10314461;28;20072;-59
2023/06/22 15:35:11;;;;;;;10.25;6.70;;;;;;;;;;10312640;28;20076;-60
2023/06/22 15:40:09;;;;;;;10.85;6.63;;;;;;;;;;10311477;28;20080;-60
2023/06/22 15:45:08;;;;;;;5.78;5.32;;;;;;;;;;10313727;28;20072;-60
2023/06/22 15:50:07;;;;;;;6.30;5.65;;;;;;;;;;10312246;28;20079;-60
2023/06/22 15:55:09;;;;;;;9.02;5.43;;;;;;;;;;10312245;28;20095;-59
2023/06/22 16:00:09;;;;;;;6.30;5.70;;;;;;;;;;10307068;28;20084;-60
2023/06/22 16:05:09;;;;;;;11.82;7.30;;;;;;;;;;10312814;28;20076;-60
2023/06/22 16:10:09;;;;;;;8.13;5.50;;;;;;;;;;10312974;28;20086;-60
2023/06/22 16:15:08;;;;;;;22.73;7.18;;;;;;;;;;10310921;28;20079;-58
2023/06/22 16:20:06;;;;;;;6.50;5.90;;;;;;;;;;10310674;28;20076;-60
2023/06/22 16:25:05;;;;;;;7.35;6.40;;;;;;;;;;10311219;28;20075;-60
2023/06/22 16:30:05;;;;;;;14.70;11.70;;;;;;;;;;10301517;28;20069;-59
2023/06/22 16:35:04;;;;;;;10.02;7.43;;;;;;;;;;10308364;28;20076;-60
2023/06/22 16:40:04;;;;;;;8.95;6.20;;;;;;;;;;10313513;28;20075;-62
2023/06/22 16:45:18;;;;;;;7.72;6.85;;;;;;;;;;10303759;28;20092;-63
2023/06/22 16:50:16;;;;;;;49.95;15.85;;;;;;;;;;10309476;28;20667;-59
2023/06/22 16:55:15;;;;;;;20.75;9.23;;;;;;;;;;10311347;28;20512;-60
2023/06/22 17:00:14;;;;;;;9.40;7.25;;;;;;;;;;10315002;28;20067;-59
2023/06/22 17:05:14;;;;;;;11.00;6.65;;;;;;;;;;10314016;28;20079;-60
2023/06/22 17:10:12;;;;;;;11.48;6.60;;;;;;;;;;10305126;28;20489;-58
2023/06/22 17:15:11;;;;;;;9.93;6.45;;;;;;;;;;10305986;28;20071;-60
2023/06/22 17:20:11;;;;;;;7.30;5.95;;;;;;;;;;10304374;28;20079;-59
2023/06/22 17:25:12;;;;;;;8.32;7.63;;;;;;;;;;10300922;28;20091;-57
2023/06/22 17:30:14;;;;;;;14.25;7.75;;;;;;;;;;10302750;28;20068;-59
2023/06/22 17:35:16;;;;;;;10.23;9.27;;;;;;;;;;10300915;28;20068;-59
2023/06/22 17:40:19;;;;;;;11.20;9.97;;;;;;;;;;10300531;28;20075;-59
2023/06/22 17:45:17;;;;;;;;;;;;;;;;;;10311016;28;20075;-59
2023/06/22 17:50:16;;;;;;;7.60;6.90;;;;;;;;;;10308740;28;20374;-58
2023/06/22 17:55:15;;;;;;;8.38;7.50;;;;;;;;;;10308536;28;20442;-58
2023/06/22 18:00:14;;;;;;;12.00;11.00;;;;;;;;;;10311620;28;20109;-58
2023/06/22 18:05:15;;;;;;;9.35;7.45;;;;;;;;;;10313302;28;20552;-59
2023/06/22 18:10:13;;;;;;;7.65;6.88;;;;;;;;;;10310273;28;20073;-61
2023/06/22 18:15:14;;;;;;;7.18;6.57;;;;;;;;;;10313214;28;20068;-61
2023/06/22 18:20:12;;;;;;;7.75;7.10;;;;;;;;;;10313262;28;20064;-60
2023/06/22 18:25:11;;;;;;;8.98;6.97;;;;;;;;;;10301823;28;20075;-58
2023/06/22 18:30:11;;;;;;;6.85;5.90;;;;;;;;;;10309574;28;20072;-58
2023/06/22 18:35:11;;;;;;;6.88;6.22;;;;;;;;;;10317771;28;20072;-59
2023/06/22 18:40:10;;;;;;;6.32;5.72;;;;;;;;;;10320474;28;20072;-60
2023/06/22 18:45:24;;;;;;;7.10;6.22;;;;;;;;;;10315133;28;20167;-59
2023/06/22 18:50:37;;;;;;;6.97;5.45;;;;;;;;;;10317027;28;20461;-59
2023/06/22 18:55:35;;;;;;;8.05;5.63;;;;;;;;;;10315367;28;20076;-60
2023/06/22 19:00:33;;;;;;;7.50;6.05;;;;;;;;;;10304296;28;20071;-59
2023/06/22 19:05:39;;;;;;;7.65;6.38;;;;;;;;;;10332352;28;20083;-59
2023/06/22 19:10:44;;;;;;;8.18;7.47;;;;;;;;;;10300345;28;20076;-60
2023/06/22 19:15:42;;;;;;;7.60;6.13;;;;;;;;;;10301043;28;20087;-59
2023/06/22 19:20:42;;;;;;;12.82;7.97;;;;;;;;;;10299428;28;20075;-59
2023/06/22 19:25:45;;;;;;;8.68;7.93;;;;;;;;;;10295808;28;20076;-59
2023/06/22 19:30:44;;;;;;;18.85;8.27;;;;;;;;;;10306724;28;20080;-60
2023/06/22 19:35:44;;;;;;;8.73;7.90;;;;;;;;;;10310806;28;20551;-59
2023/06/22 19:40:42;;;;;;;8.02;7.30;;;;;;;;;;10313125;28;20845;-59
2023/06/22 19:45:41;;;;;;;9.23;8.15;;;;;;;;;;10313473;28;20064;-59
2023/06/22 19:50:41;;;;;;;10.75;8.73;;;;;;;;;;10307251;28;20087;-59
2023/06/22 19:55:42;;;;;;;9.90;7.93;;;;;;;;;;10313227;28;20076;-59
2023/06/22 20:00:40;;;;;;;9.32;7.63;;;;;;;;;;10305686;28;20674;-59
2023/06/22 20:05:43;;;;;;;10.63;6.47;;;;;;;;;;10296317;28;20084;-57
2023/06/22 20:10:44;;;;;;;11.05;10.10;;;;;;;;;;10298864;28;20064;-58
2023/06/22 20:15:43;;;;;;;9.60;8.25;;;;;;;;;;10298564;28;20065;-58
2023/06/22 20:20:43;;;;;;;11.60;7.97;;;;;;;;;;10302797;28;20060;-58
2023/06/22 20:25:45;;;;;;;8.50;7.63;;;;;;;;;;10300909;28;20056;-59
2023/06/22 20:31:00;;;;;;;9.30;7.53;;;;;;;;;;10313555;28;20083;-60
2023/06/22 20:35:59;;;;;;;7.40;6.80;;;;;;;;;;10302082;28;20543;-59
2023/06/22 20:40:59;;;;;;;7.00;6.40;;;;;;;;;;10311283;28;20084;-59
2023/06/22 20:45:58;;;;;;;9.85;7.80;;;;;;;;;;10305579;28;20075;-58
2023/06/22 20:50:58;;;;;;;7.53;6.85;;;;;;;;;;10290414;28;20076;-57
2023/06/22 20:55:57;;;;;;;7.20;6.03;;;;;;;;;;10297957;28;20087;-60
2023/06/22 21:01:00;;;;;;;7.38;6.55;;;;;;;;;;10298461;28;20084;-58
2023/06/22 21:05:58;;;;;;;7.63;6.93;;;;;;;;;;10300109;28;20088;-59
2023/06/22 21:10:56;;;;;;;7.32;6.72;;;;;;;;;;10296644;28;20072;-59
2023/06/22 21:15:57;;;;;;;7.60;6.95;;;;;;;;;;10288039;28;20486;-59
2023/06/22 21:20:58;;;;;;;7.00;6.40;;;;;;;;;;10288983;28;20068;-58
2023/06/22 21:25:57;;;;;;;8.60;7.82;;;;;;;;;;10296388;28;20065;-59
2023/06/22 21:30:56;;;;;;;8.23;7.63;;;;;;;;;;10294778;28;20079;-56
2023/06/22 21:35:55;;;;;;;8.48;7.32;;;;;;;;;;10300738;28;20084;-59
2023/06/22 21:40:53;;;;;;;8.38;7.53;;;;;;;;;;10303983;28;20067;-56
2023/06/22 21:45:52;;;;;;;8.38;7.68;;;;;;;;;;10294259;28;20068;-58
2023/06/22 21:50:51;;;;;;;8.18;6.95;;;;;;;;;;10296304;28;20072;-58
2023/06/22 21:55:49;;;;;;;8.25;7.45;;;;;;;;;;10304387;28;20506;-57
2023/06/22 22:00:48;;;;;;;7.93;7.22;;;;;;;;;;10297443;28;20083;-59
2023/06/22 22:05:46;;;;;;;7.80;6.97;;;;;;;;;;10315311;28;20454;-58
2023/06/22 22:10:46;;;;;;;7.68;7.07;;;;;;;;;;10311489;28;20083;-58
2023/06/22 22:15:44;;;;;;;8.13;7.30;;;;;;;;;;10308792;28;20068;-60
2023/06/22 22:20:42;;;;;;;10.20;7.35;;;;;;;;;;10310300;28;20094;-58
2023/06/22 22:25:40;;;;;;;7.47;6.57;;;;;;;;;;10309792;28;20068;-58
2023/06/22 22:30:40;;;;;;;8.45;6.70;;;;;;;;;;10301928;28;20080;-60
2023/06/22 22:35:38;;;;;;;8.43;6.85;;;;;;;;;;10306403;28;20069;-57
2023/06/22 22:40:39;;;;;;;7.72;6.93;;;;;;;;;;10304671;28;20064;-59
2023/06/22 22:45:38;;;;;;;10.35;7.10;;;;;;;;;;10300974;28;21121;-59
2023/06/22 22:50:37;;;;;;;10.57;7.53;;;;;;;;;;10303964;28;20068;-59
2023/06/22 22:55:36;;;;;;;10.23;7.60;;;;;;;;;;10304104;28;20068;-59
2023/06/22 23:00:34;;;;;;;7.97;7.18;;;;;;;;;;10298119;28;20076;-60
2023/06/22 23:05:34;;;;;;;7.78;7.13;;;;;;;;;;10298617;28;20076;-58
2023/06/22 23:10:33;;;;;;;7.60;6.90;;;;;;;;;;10297194;28;20079;-58
2023/06/22 23:15:32;;;;;;;7.82;7.07;;;;;;;;;;10296438;28;20518;-59
2023/06/22 23:20:30;;;;;;;8.48;7.68;;;;;;;;;;10297414;28;20073;-59
2023/06/22 23:25:28;;;;;;;7.60;6.90;;;;;;;;;;10297889;28;20072;-57
2023/06/22 23:30:31;;;;;;;7.03;6.32;;;;;;;;;;10298010;28;20080;-58
2023/06/22 23:35:29;;;;;;;6.65;6.05;;;;;;;;;;10298063;28;20280;-56
2023/06/22 23:40:28;;;;;;;8.23;7.43;;;;;;;;;;10297879;28;20495;-59
2023/06/22 23:45:26;;;;;;;8.38;7.60;;;;;;;;;;10307525;28;20481;-59
2023/06/22 23:50:26;;;;;;;7.32;6.30;;;;;;;;;;10317466;28;20474;-60
2023/06/22 23:55:25;;;;;;;7.93;6.80;;;;;;;;;;10311925;28;20072;-56
